sensor_id;sensor_type;location;lat;lon;timestamp;P1;durP1;ratioP1;P2;durP2;ratioP2
70908;SDS011;58554;52.006;5.926;2023-05-07T00:01:50;11.63;;;8.70;;
70908;SDS011;58554;52.006;5.926;2023-05-07T00:04:17;10.20;;;8.23;;
70908;SDS011;58554;52.006;5.926;2023-05-07T00:06:46;12.05;;;8.35;;
70908;SDS011;58554;52.006;5.926;2023-05-07T00:09:13;12.47;;;8.50;;
70908;SDS011;58554;52.006;5.926;2023-05-07T00:11:39;11.17;;;7.93;;
70908;SDS011;58554;52.006;5.926;2023-05-07T00:14:06;11.80;;;8.40;;
70908;SDS011;58554;52.006;5.926;2023-05-07T00:16:35;11.13;;;8.20;;
70908;SDS011;58554;52.006;5.926;2023-05-07T00:19:01;11.93;;;8.50;;
70908;SDS011;58554;52.006;5.926;2023-05-07T00:21:28;12.20;;;9.00;;
70908;SDS011;58554;52.006;5.926;2023-05-07T00:23:54;12.17;;;8.77;;
70908;SDS011;58554;52.006;5.926;2023-05-07T00:26:21;14.87;;;8.77;;
70908;SDS011;58554;52.006;5.926;2023-05-07T00:28:48;11.18;;;8.38;;
70908;SDS011;58554;52.006;5.926;2023-05-07T00:31:14;12.20;;;8.63;;
70908;SDS011;58554;52.006;5.926;2023-05-07T00:33:43;13.05;;;8.23;;
70908;SDS011;58554;52.006;5.926;2023-05-07T00:36:10;11.63;;;9.02;;
70908;SDS011;58554;52.006;5.926;2023-05-07T00:38:36;13.73;;;8.67;;
70908;SDS011;58554;52.006;5.926;2023-05-07T00:41:03;12.57;;;8.53;;
70908;SDS011;58554;52.006;5.926;2023-05-07T00:43:29;13.60;;;9.13;;
70908;SDS011;58554;52.006;5.926;2023-05-07T00:45:56;12.98;;;9.32;;
70908;SDS011;58554;52.006;5.926;2023-05-07T00:48:22;13.43;;;9.05;;
70908;SDS011;58554;52.006;5.926;2023-05-07T00:50:53;13.25;;;9.27;;
70908;SDS011;58554;52.006;5.926;2023-05-07T00:53:20;12.70;;;9.07;;
70908;SDS011;58554;52.006;5.926;2023-05-07T00:55:47;12.37;;;9.30;;
70908;SDS011;58554;52.006;5.926;2023-05-07T00:58:14;12.07;;;9.18;;
70908;SDS011;58554;52.006;5.926;2023-05-07T01:00:42;13.00;;;9.48;;
70908;SDS011;58554;52.006;5.926;2023-05-07T01:03:09;13.55;;;9.70;;
70908;SDS011;58554;52.006;5.926;2023-05-07T01:05:35;13.23;;;9.60;;
70908;SDS011;58554;52.006;5.926;2023-05-07T01:08:05;13.47;;;9.57;;
70908;SDS011;58554;52.006;5.926;2023-05-07T01:10:32;13.60;;;10.17;;
70908;SDS011;58554;52.006;5.926;2023-05-07T01:12:59;14.97;;;10.67;;
70908;SDS011;58554;52.006;5.926;2023-05-07T01:15:26;13.30;;;10.20;;
70908;SDS011;58554;52.006;5.926;2023-05-07T01:17:53;13.73;;;10.37;;
70908;SDS011;58554;52.006;5.926;2023-05-07T01:20:22;14.10;;;10.63;;
70908;SDS011;58554;52.006;5.926;2023-05-07T01:22:52;14.82;;;10.68;;
70908;SDS011;58554;52.006;5.926;2023-05-07T01:25:19;14.03;;;10.43;;
70908;SDS011;58554;52.006;5.926;2023-05-07T01:27:47;14.73;;;10.60;;
70908;SDS011;58554;52.006;5.926;2023-05-07T01:30:13;13.48;;;10.45;;
70908;SDS011;58554;52.006;5.926;2023-05-07T01:32:42;14.57;;;11.10;;
70908;SDS011;58554;52.006;5.926;2023-05-07T01:35:17;13.35;;;10.00;;
70908;SDS011;58554;52.006;5.926;2023-05-07T01:37:48;13.27;;;10.40;;
70908;SDS011;58554;52.006;5.926;2023-05-07T01:40:19;13.77;;;10.67;;
70908;SDS011;58554;52.006;5.926;2023-05-07T01:42:49;14.30;;;10.50;;
70908;SDS011;58554;52.006;5.926;2023-05-07T01:45:18;13.93;;;10.50;;
70908;SDS011;58554;52.006;5.926;2023-05-07T01:47:45;13.65;;;10.73;;
70908;SDS011;58554;52.006;5.926;2023-05-07T01:50:12;14.48;;;11.05;;
70908;SDS011;58554;52.006;5.926;2023-05-07T01:52:42;13.57;;;10.73;;
70908;SDS011;58554;52.006;5.926;2023-05-07T01:55:12;14.30;;;10.90;;
70908;SDS011;58554;52.006;5.926;2023-05-07T01:57:39;14.27;;;10.43;;
70908;SDS011;58554;52.006;5.926;2023-05-07T02:00:06;15.43;;;10.60;;
70908;SDS011;58554;52.006;5.926;2023-05-07T02:02:34;13.88;;;10.75;;
70908;SDS011;58554;52.006;5.926;2023-05-07T02:05:00;14.07;;;11.30;;
70908;SDS011;58554;52.006;5.926;2023-05-07T02:07:27;14.10;;;10.63;;
70908;SDS011;58554;52.006;5.926;2023-05-07T02:09:54;14.47;;;11.00;;
70908;SDS011;58554;52.006;5.926;2023-05-07T02:12:23;16.30;;;12.00;;
70908;SDS011;58554;52.006;5.926;2023-05-07T02:14:49;14.20;;;10.80;;
70908;SDS011;58554;52.006;5.926;2023-05-07T02:17:18;16.40;;;11.47;;
70908;SDS011;58554;52.006;5.926;2023-05-07T02:19:45;18.13;;;11.73;;
70908;SDS011;58554;52.006;5.926;2023-05-07T02:22:11;14.20;;;10.67;;
70908;SDS011;58554;52.006;5.926;2023-05-07T02:24:37;15.90;;;10.90;;
70908;SDS011;58554;52.006;5.926;2023-05-07T02:27:04;15.15;;;10.98;;
70908;SDS011;58554;52.006;5.926;2023-05-07T02:29:33;15.13;;;11.37;;
70908;SDS011;58554;52.006;5.926;2023-05-07T02:32:00;15.53;;;11.23;;
70908;SDS011;58554;52.006;5.926;2023-05-07T02:34:26;13.85;;;10.57;;
70908;SDS011;58554;52.006;5.926;2023-05-07T02:36:53;13.77;;;10.63;;
70908;SDS011;58554;52.006;5.926;2023-05-07T02:39:19;14.40;;;10.33;;
70908;SDS011;58554;52.006;5.926;2023-05-07T02:41:46;14.30;;;10.40;;
70908;SDS011;58554;52.006;5.926;2023-05-07T02:44:12;14.30;;;10.50;;
70908;SDS011;58554;52.006;5.926;2023-05-07T02:46:41;13.95;;;10.00;;
70908;SDS011;58554;52.006;5.926;2023-05-07T02:49:08;15.52;;;10.57;;
70908;SDS011;58554;52.006;5.926;2023-05-07T02:51:34;16.10;;;10.53;;
70908;SDS011;58554;52.006;5.926;2023-05-07T02:54:01;17.20;;;10.40;;
70908;SDS011;58554;52.006;5.926;2023-05-07T02:56:27;15.20;;;10.43;;
70908;SDS011;58554;52.006;5.926;2023-05-07T02:58:54;14.95;;;10.23;;
70908;SDS011;58554;52.006;5.926;2023-05-07T03:01:23;14.20;;;9.77;;
70908;SDS011;58554;52.006;5.926;2023-05-07T03:03:52;15.33;;;10.17;;
70908;SDS011;58554;52.006;5.926;2023-05-07T03:06:18;15.55;;;10.10;;
70908;SDS011;58554;52.006;5.926;2023-05-07T03:08:44;15.10;;;10.53;;
70908;SDS011;58554;52.006;5.926;2023-05-07T03:11:11;15.60;;;10.50;;
70908;SDS011;58554;52.006;5.926;2023-05-07T03:13:37;15.55;;;10.07;;
70908;SDS011;58554;52.006;5.926;2023-05-07T03:16:04;15.18;;;10.20;;
70908;SDS011;58554;52.006;5.926;2023-05-07T03:18:32;13.93;;;10.23;;
70908;SDS011;58554;52.006;5.926;2023-05-07T03:21:01;13.32;;;9.65;;
70908;SDS011;58554;52.006;5.926;2023-05-07T03:23:27;14.02;;;10.10;;
70908;SDS011;58554;52.006;5.926;2023-05-07T03:25:54;16.13;;;10.30;;
70908;SDS011;58554;52.006;5.926;2023-05-07T03:28:20;15.43;;;10.43;;
70908;SDS011;58554;52.006;5.926;2023-05-07T03:30:47;14.10;;;9.83;;
70908;SDS011;58554;52.006;5.926;2023-05-07T03:33:13;13.65;;;9.70;;
70908;SDS011;58554;52.006;5.926;2023-05-07T03:35:40;14.60;;;9.98;;
70908;SDS011;58554;52.006;5.926;2023-05-07T03:38:09;14.83;;;10.37;;
70908;SDS011;58554;52.006;5.926;2023-05-07T03:40:35;15.60;;;10.27;;
70908;SDS011;58554;52.006;5.926;2023-05-07T03:43:02;15.23;;;10.73;;
70908;SDS011;58554;52.006;5.926;2023-05-07T03:45:28;16.58;;;11.45;;
70908;SDS011;58554;52.006;5.926;2023-05-07T03:47:55;17.92;;;12.02;;
70908;SDS011;58554;52.006;5.926;2023-05-07T03:50:21;16.63;;;11.90;;
70908;SDS011;58554;52.006;5.926;2023-05-07T03:52:48;18.30;;;12.07;;
70908;SDS011;58554;52.006;5.926;2023-05-07T03:55:17;18.10;;;12.18;;
70908;SDS011;58554;52.006;5.926;2023-05-07T03:57:43;15.85;;;11.70;;
70908;SDS011;58554;52.006;5.926;2023-05-07T04:00:11;18.60;;;12.27;;
70908;SDS011;58554;52.006;5.926;2023-05-07T04:02:39;17.52;;;11.88;;
70908;SDS011;58554;52.006;5.926;2023-05-07T04:05:06;16.15;;;12.25;;
70908;SDS011;58554;52.006;5.926;2023-05-07T04:07:33;17.77;;;12.80;;
70908;SDS011;58554;52.006;5.926;2023-05-07T04:10:00;17.13;;;12.23;;
70908;SDS011;58554;52.006;5.926;2023-05-07T04:12:29;17.00;;;12.63;;
70908;SDS011;58554;52.006;5.926;2023-05-07T04:14:55;19.02;;;12.82;;
70908;SDS011;58554;52.006;5.926;2023-05-07T04:17:22;17.27;;;12.40;;
70908;SDS011;58554;52.006;5.926;2023-05-07T04:19:48;19.38;;;12.75;;
70908;SDS011;58554;52.006;5.926;2023-05-07T04:22:14;18.03;;;12.47;;
70908;SDS011;58554;52.006;5.926;2023-05-07T04:24:41;16.73;;;12.18;;
70908;SDS011;58554;52.006;5.926;2023-05-07T04:27:07;18.30;;;13.20;;
70908;SDS011;58554;52.006;5.926;2023-05-07T04:29:36;19.13;;;13.30;;
70908;SDS011;58554;52.006;5.926;2023-05-07T04:32:03;17.90;;;13.05;;
70908;SDS011;58554;52.006;5.926;2023-05-07T04:34:30;18.47;;;13.03;;
70908;SDS011;58554;52.006;5.926;2023-05-07T04:36:58;18.73;;;12.77;;
70908;SDS011;58554;52.006;5.926;2023-05-07T04:39:25;19.27;;;13.33;;
70908;SDS011;58554;52.006;5.926;2023-05-07T04:41:51;19.23;;;13.17;;
70908;SDS011;58554;52.006;5.926;2023-05-07T04:44:18;19.85;;;13.02;;
70908;SDS011;58554;52.006;5.926;2023-05-07T04:46:47;22.38;;;13.15;;
70908;SDS011;58554;52.006;5.926;2023-05-07T04:49:13;18.48;;;12.95;;
70908;SDS011;58554;52.006;5.926;2023-05-07T04:51:40;19.53;;;13.47;;
70908;SDS011;58554;52.006;5.926;2023-05-07T04:54:06;19.83;;;12.97;;
70908;SDS011;58554;52.006;5.926;2023-05-07T04:56:33;20.13;;;13.37;;
70908;SDS011;58554;52.006;5.926;2023-05-07T04:58:59;21.08;;;13.50;;
70908;SDS011;58554;52.006;5.926;2023-05-07T05:01:25;20.77;;;13.57;;
70908;SDS011;58554;52.006;5.926;2023-05-07T05:03:55;20.05;;;13.50;;
70908;SDS011;58554;52.006;5.926;2023-05-07T05:06:21;20.63;;;13.35;;
70908;SDS011;58554;52.006;5.926;2023-05-07T05:08:48;20.90;;;13.80;;
70908;SDS011;58554;52.006;5.926;2023-05-07T05:11:14;19.87;;;13.47;;
70908;SDS011;58554;52.006;5.926;2023-05-07T05:13:40;23.30;;;13.13;;
70908;SDS011;58554;52.006;5.926;2023-05-07T05:16:07;21.47;;;13.80;;
70908;SDS011;58554;52.006;5.926;2023-05-07T05:18:34;21.92;;;13.48;;
70908;SDS011;58554;52.006;5.926;2023-05-07T05:21:03;19.03;;;13.37;;
70908;SDS011;58554;52.006;5.926;2023-05-07T05:23:30;20.33;;;13.13;;
70908;SDS011;58554;52.006;5.926;2023-05-07T05:25:56;20.70;;;13.73;;
70908;SDS011;58554;52.006;5.926;2023-05-07T05:28:24;19.50;;;13.32;;
70908;SDS011;58554;52.006;5.926;2023-05-07T05:30:50;20.77;;;13.17;;
70908;SDS011;58554;52.006;5.926;2023-05-07T05:33:17;20.48;;;13.07;;
70908;SDS011;58554;52.006;5.926;2023-05-07T05:35:44;19.50;;;12.93;;
70908;SDS011;58554;52.006;5.926;2023-05-07T05:38:13;19.83;;;13.37;;
70908;SDS011;58554;52.006;5.926;2023-05-07T05:40:39;20.30;;;13.97;;
70908;SDS011;58554;52.006;5.926;2023-05-07T05:43:06;22.48;;;13.60;;
70908;SDS011;58554;52.006;5.926;2023-05-07T05:45:32;19.38;;;13.07;;
70908;SDS011;58554;52.006;5.926;2023-05-07T05:47:59;19.58;;;13.13;;
70908;SDS011;58554;52.006;5.926;2023-05-07T05:50:26;21.40;;;13.67;;
70908;SDS011;58554;52.006;5.926;2023-05-07T05:52:52;19.70;;;13.27;;
70908;SDS011;58554;52.006;5.926;2023-05-07T05:55:22;21.23;;;13.52;;
70908;SDS011;58554;52.006;5.926;2023-05-07T05:57:48;20.45;;;13.23;;
70908;SDS011;58554;52.006;5.926;2023-05-07T06:00:15;22.13;;;13.55;;
70908;SDS011;58554;52.006;5.926;2023-05-07T06:02:42;20.10;;;13.50;;
70908;SDS011;58554;52.006;5.926;2023-05-07T06:05:09;19.93;;;13.27;;
70908;SDS011;58554;52.006;5.926;2023-05-07T06:07:35;20.85;;;13.70;;
70908;SDS011;58554;52.006;5.926;2023-05-07T06:10:02;20.55;;;13.98;;
70908;SDS011;58554;52.006;5.926;2023-05-07T06:12:31;20.08;;;13.02;;
70908;SDS011;58554;52.006;5.926;2023-05-07T06:14:58;21.05;;;13.55;;
70908;SDS011;58554;52.006;5.926;2023-05-07T06:17:25;21.27;;;14.23;;
70908;SDS011;58554;52.006;5.926;2023-05-07T06:19:51;21.93;;;14.23;;
70908;SDS011;58554;52.006;5.926;2023-05-07T06:22:18;20.67;;;13.70;;
70908;SDS011;58554;52.006;5.926;2023-05-07T06:24:45;20.87;;;14.00;;
70908;SDS011;58554;52.006;5.926;2023-05-07T06:27:11;22.20;;;14.43;;
70908;SDS011;58554;52.006;5.926;2023-05-07T06:29:40;20.30;;;13.88;;
70908;SDS011;58554;52.006;5.926;2023-05-07T06:32:07;21.90;;;14.48;;
70908;SDS011;58554;52.006;5.926;2023-05-07T06:34:34;21.08;;;13.90;;
70908;SDS011;58554;52.006;5.926;2023-05-07T06:37:01;20.77;;;14.35;;
70908;SDS011;58554;52.006;5.926;2023-05-07T06:39:28;22.50;;;14.18;;
70908;SDS011;58554;52.006;5.926;2023-05-07T06:41:55;21.63;;;14.97;;
70908;SDS011;58554;52.006;5.926;2023-05-07T06:44:21;22.40;;;14.17;;
70908;SDS011;58554;52.006;5.926;2023-05-07T06:46:50;23.67;;;15.47;;
70908;SDS011;58554;52.006;5.926;2023-05-07T06:49:17;23.45;;;14.80;;
70908;SDS011;58554;52.006;5.926;2023-05-07T06:51:43;24.40;;;15.20;;
70908;SDS011;58554;52.006;5.926;2023-05-07T06:54:10;23.30;;;14.67;;
70908;SDS011;58554;52.006;5.926;2023-05-07T06:56:36;23.63;;;15.20;;
70908;SDS011;58554;52.006;5.926;2023-05-07T06:59:03;25.20;;;15.32;;
70908;SDS011;58554;52.006;5.926;2023-05-07T07:01:30;20.98;;;14.75;;
70908;SDS011;58554;52.006;5.926;2023-05-07T07:03:59;22.80;;;15.15;;
70908;SDS011;58554;52.006;5.926;2023-05-07T07:06:25;23.00;;;14.88;;
70908;SDS011;58554;52.006;5.926;2023-05-07T07:08:52;22.38;;;14.70;;
70908;SDS011;58554;52.006;5.926;2023-05-07T07:11:18;25.05;;;15.88;;
70908;SDS011;58554;52.006;5.926;2023-05-07T07:13:45;25.88;;;15.55;;
70908;SDS011;58554;52.006;5.926;2023-05-07T07:16:11;22.90;;;14.97;;
70908;SDS011;58554;52.006;5.926;2023-05-07T07:18:38;22.80;;;14.97;;
70908;SDS011;58554;52.006;5.926;2023-05-07T07:21:07;25.83;;;16.30;;
70908;SDS011;58554;52.006;5.926;2023-05-07T07:23:34;24.48;;;15.13;;
70908;SDS011;58554;52.006;5.926;2023-05-07T07:26:00;24.42;;;15.63;;
70908;SDS011;58554;52.006;5.926;2023-05-07T07:28:27;24.02;;;15.43;;
70908;SDS011;58554;52.006;5.926;2023-05-07T07:30:53;22.97;;;14.70;;
70908;SDS011;58554;52.006;5.926;2023-05-07T07:33:19;23.55;;;15.13;;
70908;SDS011;58554;52.006;5.926;2023-05-07T07:35:48;24.37;;;15.37;;
70908;SDS011;58554;52.006;5.926;2023-05-07T07:38:17;23.73;;;15.93;;
70908;SDS011;58554;52.006;5.926;2023-05-07T07:40:47;25.33;;;15.95;;
70908;SDS011;58554;52.006;5.926;2023-05-07T07:43:13;25.00;;;15.95;;
70908;SDS011;58554;52.006;5.926;2023-05-07T07:45:40;23.00;;;15.23;;
70908;SDS011;58554;52.006;5.926;2023-05-07T07:48:06;23.53;;;15.20;;
70908;SDS011;58554;52.006;5.926;2023-05-07T07:50:33;23.13;;;15.57;;
70908;SDS011;58554;52.006;5.926;2023-05-07T07:52:59;24.23;;;15.17;;
70908;SDS011;58554;52.006;5.926;2023-05-07T07:55:28;22.55;;;15.05;;
70908;SDS011;58554;52.006;5.926;2023-05-07T07:57:55;24.25;;;15.25;;
70908;SDS011;58554;52.006;5.926;2023-05-07T08:00:21;23.13;;;14.80;;
70908;SDS011;58554;52.006;5.926;2023-05-07T08:02:48;22.63;;;14.53;;
70908;SDS011;58554;52.006;5.926;2023-05-07T08:05:14;20.58;;;14.52;;
70908;SDS011;58554;52.006;5.926;2023-05-07T08:07:41;20.83;;;13.73;;
70908;SDS011;58554;52.006;5.926;2023-05-07T08:10:08;22.17;;;14.63;;
70908;SDS011;58554;52.006;5.926;2023-05-07T08:12:38;23.77;;;15.37;;
70908;SDS011;58554;52.006;5.926;2023-05-07T08:15:05;22.70;;;14.70;;
70908;SDS011;58554;52.006;5.926;2023-05-07T08:17:34;22.20;;;14.32;;
70908;SDS011;58554;52.006;5.926;2023-05-07T08:20:00;22.73;;;14.00;;
70908;SDS011;58554;52.006;5.926;2023-05-07T08:22:27;21.98;;;14.68;;
70908;SDS011;58554;52.006;5.926;2023-05-07T08:24:53;20.80;;;13.77;;
70908;SDS011;58554;52.006;5.926;2023-05-07T08:27:20;20.50;;;13.63;;
70908;SDS011;58554;52.006;5.926;2023-05-07T08:29:49;20.53;;;13.50;;
70908;SDS011;58554;52.006;5.926;2023-05-07T08:32:16;26.27;;;13.50;;
70908;SDS011;58554;52.006;5.926;2023-05-07T08:34:42;22.30;;;13.97;;
70908;SDS011;58554;52.006;5.926;2023-05-07T08:37:09;21.83;;;13.90;;
70908;SDS011;58554;52.006;5.926;2023-05-07T08:39:35;19.70;;;12.95;;
70908;SDS011;58554;52.006;5.926;2023-05-07T08:42:02;21.45;;;14.00;;
70908;SDS011;58554;52.006;5.926;2023-05-07T08:44:31;20.95;;;13.43;;
70908;SDS011;58554;52.006;5.926;2023-05-07T08:47:03;19.80;;;13.15;;
70908;SDS011;58554;52.006;5.926;2023-05-07T08:49:33;20.77;;;13.65;;
70908;SDS011;58554;52.006;5.926;2023-05-07T08:52:00;18.95;;;12.50;;
70908;SDS011;58554;52.006;5.926;2023-05-07T08:54:27;17.80;;;12.20;;
70908;SDS011;58554;52.006;5.926;2023-05-07T08:56:56;21.08;;;12.88;;
70908;SDS011;58554;52.006;5.926;2023-05-07T08:59:23;19.75;;;12.82;;
70908;SDS011;58554;52.006;5.926;2023-05-07T09:01:49;17.80;;;12.07;;
70908;SDS011;58554;52.006;5.926;2023-05-07T09:04:18;17.90;;;11.75;;
70908;SDS011;58554;52.006;5.926;2023-05-07T09:06:45;18.37;;;12.10;;
70908;SDS011;58554;52.006;5.926;2023-05-07T09:09:13;18.07;;;11.37;;
70908;SDS011;58554;52.006;5.926;2023-05-07T09:11:42;19.10;;;11.83;;
70908;SDS011;58554;52.006;5.926;2023-05-07T09:14:09;18.97;;;12.37;;
70908;SDS011;58554;52.006;5.926;2023-05-07T09:16:35;19.42;;;12.77;;
70908;SDS011;58554;52.006;5.926;2023-05-07T09:19:02;18.10;;;12.48;;
70908;SDS011;58554;52.006;5.926;2023-05-07T09:21:31;18.25;;;11.68;;
70908;SDS011;58554;52.006;5.926;2023-05-07T09:23:57;19.42;;;12.45;;
70908;SDS011;58554;52.006;5.926;2023-05-07T09:26:25;20.17;;;12.57;;
70908;SDS011;58554;52.006;5.926;2023-05-07T09:28:52;18.33;;;11.93;;
70908;SDS011;58554;52.006;5.926;2023-05-07T09:31:18;17.97;;;11.53;;
70908;SDS011;58554;52.006;5.926;2023-05-07T09:33:46;17.80;;;11.40;;
70908;SDS011;58554;52.006;5.926;2023-05-07T09:36:12;15.83;;;10.63;;
70908;SDS011;58554;52.006;5.926;2023-05-07T09:38:42;19.20;;;11.82;;
70908;SDS011;58554;52.006;5.926;2023-05-07T09:41:09;18.05;;;11.35;;
70908;SDS011;58554;52.006;5.926;2023-05-07T09:43:38;20.30;;;11.93;;
70908;SDS011;58554;52.006;5.926;2023-05-07T09:46:06;15.23;;;10.67;;
70908;SDS011;58554;52.006;5.926;2023-05-07T09:48:39;15.43;;;10.90;;
70908;SDS011;58554;52.006;5.926;2023-05-07T09:51:11;18.37;;;10.73;;
70908;SDS011;58554;52.006;5.926;2023-05-07T09:53:50;17.00;;;11.05;;
70908;SDS011;58554;52.006;5.926;2023-05-07T09:56:19;16.27;;;10.77;;
70908;SDS011;58554;52.006;5.926;2023-05-07T09:58:46;17.37;;;11.47;;
70908;SDS011;58554;52.006;5.926;2023-05-07T10:01:15;16.42;;;11.75;;
70908;SDS011;58554;52.006;5.926;2023-05-07T10:03:43;17.35;;;11.73;;
70908;SDS011;58554;52.006;5.926;2023-05-07T10:06:11;14.60;;;10.43;;
70908;SDS011;58554;52.006;5.926;2023-05-07T10:08:40;14.53;;;10.20;;
70908;SDS011;58554;52.006;5.926;2023-05-07T10:11:12;16.77;;;10.77;;
70908;SDS011;58554;52.006;5.926;2023-05-07T10:13:40;17.10;;;11.20;;
70908;SDS011;58554;52.006;5.926;2023-05-07T10:16:08;16.17;;;10.48;;
70908;SDS011;58554;52.006;5.926;2023-05-07T10:18:35;15.03;;;10.43;;
70908;SDS011;58554;52.006;5.926;2023-05-07T10:21:07;15.37;;;10.90;;
70908;SDS011;58554;52.006;5.926;2023-05-07T10:23:41;16.58;;;11.25;;
70908;SDS011;58554;52.006;5.926;2023-05-07T10:26:17;16.75;;;11.38;;
70908;SDS011;58554;52.006;5.926;2023-05-07T10:28:49;18.27;;;11.97;;
70908;SDS011;58554;52.006;5.926;2023-05-07T10:31:29;17.05;;;11.50;;
70908;SDS011;58554;52.006;5.926;2023-05-07T10:34:33;16.73;;;11.52;;
70908;SDS011;58554;52.006;5.926;2023-05-07T10:37:16;16.57;;;11.53;;
70908;SDS011;58554;52.006;5.926;2023-05-07T10:39:44;15.70;;;11.13;;
70908;SDS011;58554;52.006;5.926;2023-05-07T10:42:14;14.83;;;10.47;;
70908;SDS011;58554;52.006;5.926;2023-05-07T10:44:41;14.10;;;10.75;;
70908;SDS011;58554;52.006;5.926;2023-05-07T10:47:08;16.33;;;11.20;;
70908;SDS011;58554;52.006;5.926;2023-05-07T10:49:46;16.08;;;11.40;;
70908;SDS011;58554;52.006;5.926;2023-05-07T10:55:49;13.90;;;10.20;;
70908;SDS011;58554;52.006;5.926;2023-05-07T10:58:26;14.83;;;10.40;;
70908;SDS011;58554;52.006;5.926;2023-05-07T11:00:56;15.00;;;10.57;;
70908;SDS011;58554;52.006;5.926;2023-05-07T11:03:24;13.50;;;9.60;;
70908;SDS011;58554;52.006;5.926;2023-05-07T11:08:53;15.88;;;10.25;;
70908;SDS011;58554;52.006;5.926;2023-05-07T11:11:27;17.13;;;10.18;;
70908;SDS011;58554;52.006;5.926;2023-05-07T11:14:13;14.50;;;10.00;;
70908;SDS011;58554;52.006;5.926;2023-05-07T11:16:40;13.80;;;9.33;;
70908;SDS011;58554;52.006;5.926;2023-05-07T11:19:09;15.95;;;10.30;;
70908;SDS011;58554;52.006;5.926;2023-05-07T11:21:36;11.88;;;9.38;;
70908;SDS011;58554;52.006;5.926;2023-05-07T11:24:05;13.93;;;10.32;;
70908;SDS011;58554;52.006;5.926;2023-05-07T11:26:43;14.93;;;10.60;;
70908;SDS011;58554;52.006;5.926;2023-05-07T11:29:16;14.63;;;10.40;;
70908;SDS011;58554;52.006;5.926;2023-05-07T11:31:48;17.25;;;12.07;;
70908;SDS011;58554;52.006;5.926;2023-05-07T11:34:15;16.80;;;10.93;;
70908;SDS011;58554;52.006;5.926;2023-05-07T11:36:48;14.57;;;10.43;;
70908;SDS011;58554;52.006;5.926;2023-05-07T11:39:25;15.80;;;11.17;;
70908;SDS011;58554;52.006;5.926;2023-05-07T11:41:54;18.93;;;12.13;;
70908;SDS011;58554;52.006;5.926;2023-05-07T11:44:23;15.67;;;11.27;;
70908;SDS011;58554;52.006;5.926;2023-05-07T11:46:49;16.30;;;11.37;;
70908;SDS011;58554;52.006;5.926;2023-05-07T11:49:16;15.90;;;10.70;;
70908;SDS011;58554;52.006;5.926;2023-05-07T11:51:44;15.40;;;11.35;;
70908;SDS011;58554;52.006;5.926;2023-05-07T11:54:10;16.80;;;11.80;;
70908;SDS011;58554;52.006;5.926;2023-05-07T11:56:37;17.27;;;11.87;;
70908;SDS011;58554;52.006;5.926;2023-05-07T11:59:04;15.30;;;11.37;;
70908;SDS011;58554;52.006;5.926;2023-05-07T12:01:34;16.15;;;12.20;;
70908;SDS011;58554;52.006;5.926;2023-05-07T12:04:02;16.40;;;11.70;;
70908;SDS011;58554;52.006;5.926;2023-05-07T12:06:29;14.77;;;11.80;;
70908;SDS011;58554;52.006;5.926;2023-05-07T12:08:56;15.70;;;12.05;;
70908;SDS011;58554;52.006;5.926;2023-05-07T12:11:23;15.98;;;11.85;;
70908;SDS011;58554;52.006;5.926;2023-05-07T12:13:51;16.17;;;11.93;;
70908;SDS011;58554;52.006;5.926;2023-05-07T12:16:20;15.25;;;10.85;;
70908;SDS011;58554;52.006;5.926;2023-05-07T12:18:50;15.52;;;12.15;;
70908;SDS011;58554;52.006;5.926;2023-05-07T12:21:17;17.42;;;11.70;;
70908;SDS011;58554;52.006;5.926;2023-05-07T12:23:46;16.30;;;12.03;;
70908;SDS011;58554;52.006;5.926;2023-05-07T12:26:13;15.97;;;11.40;;
70908;SDS011;58554;52.006;5.926;2023-05-07T12:28:40;15.67;;;11.67;;
70908;SDS011;58554;52.006;5.926;2023-05-07T12:31:07;14.80;;;11.77;;
70908;SDS011;58554;52.006;5.926;2023-05-07T12:33:34;15.60;;;11.60;;
70908;SDS011;58554;52.006;5.926;2023-05-07T12:36:08;14.27;;;11.23;;
70908;SDS011;58554;52.006;5.926;2023-05-07T12:38:38;16.70;;;10.90;;
70908;SDS011;58554;52.006;5.926;2023-05-07T12:41:06;14.95;;;11.35;;
70908;SDS011;58554;52.006;5.926;2023-05-07T12:43:34;13.20;;;10.63;;
70908;SDS011;58554;52.006;5.926;2023-05-07T12:46:01;13.02;;;10.50;;
70908;SDS011;58554;52.006;5.926;2023-05-07T12:48:30;13.43;;;10.23;;
70908;SDS011;58554;52.006;5.926;2023-05-07T12:50:58;15.30;;;10.95;;
70908;SDS011;58554;52.006;5.926;2023-05-07T12:53:29;13.82;;;10.45;;
70908;SDS011;58554;52.006;5.926;2023-05-07T12:55:56;13.25;;;10.07;;
70908;SDS011;58554;52.006;5.926;2023-05-07T12:58:25;12.37;;;9.90;;
70908;SDS011;58554;52.006;5.926;2023-05-07T13:00:54;13.60;;;10.50;;
70908;SDS011;58554;52.006;5.926;2023-05-07T13:03:23;11.67;;;9.47;;
70908;SDS011;58554;52.006;5.926;2023-05-07T13:05:52;13.63;;;9.90;;
70908;SDS011;58554;52.006;5.926;2023-05-07T13:08:30;12.73;;;9.63;;
70908;SDS011;58554;52.006;5.926;2023-05-07T13:10:58;12.43;;;9.17;;
70908;SDS011;58554;52.006;5.926;2023-05-07T13:13:27;13.17;;;9.60;;
70908;SDS011;58554;52.006;5.926;2023-05-07T13:15:54;11.60;;;9.17;;
70908;SDS011;58554;52.006;5.926;2023-05-07T13:18:22;12.85;;;10.07;;
70908;SDS011;58554;52.006;5.926;2023-05-07T13:20:51;14.13;;;9.27;;
70908;SDS011;58554;52.006;5.926;2023-05-07T13:23:20;12.73;;;9.68;;
70908;SDS011;58554;52.006;5.926;2023-05-07T13:25:50;13.00;;;9.47;;
70908;SDS011;58554;52.006;5.926;2023-05-07T13:28:17;13.25;;;10.02;;
70908;SDS011;58554;52.006;5.926;2023-05-07T13:30:44;12.57;;;8.85;;
70908;SDS011;58554;52.006;5.926;2023-05-07T13:33:10;13.60;;;10.55;;
70908;SDS011;58554;52.006;5.926;2023-05-07T13:35:37;13.95;;;10.02;;
70908;SDS011;58554;52.006;5.926;2023-05-07T13:38:03;14.13;;;10.55;;
70908;SDS011;58554;52.006;5.926;2023-05-07T13:40:30;14.60;;;10.37;;
70908;SDS011;58554;52.006;5.926;2023-05-07T13:43:00;14.00;;;10.50;;
70908;SDS011;58554;52.006;5.926;2023-05-07T13:45:27;13.65;;;10.10;;
70908;SDS011;58554;52.006;5.926;2023-05-07T13:47:53;12.80;;;9.70;;
70908;SDS011;58554;52.006;5.926;2023-05-07T13:50:22;13.93;;;10.77;;
70908;SDS011;58554;52.006;5.926;2023-05-07T13:52:49;14.07;;;10.40;;
70908;SDS011;58554;52.006;5.926;2023-05-07T13:55:16;14.88;;;10.45;;
70908;SDS011;58554;52.006;5.926;2023-05-07T13:57:43;15.37;;;10.33;;
70908;SDS011;58554;52.006;5.926;2023-05-07T14:00:13;14.02;;;10.80;;
70908;SDS011;58554;52.006;5.926;2023-05-07T14:02:41;12.50;;;9.35;;
70908;SDS011;58554;52.006;5.926;2023-05-07T14:05:08;11.83;;;9.70;;
70908;SDS011;58554;52.006;5.926;2023-05-07T14:07:34;13.88;;;8.98;;
70908;SDS011;58554;52.006;5.926;2023-05-07T14:10:01;11.70;;;9.10;;
70908;SDS011;58554;52.006;5.926;2023-05-07T14:12:28;10.13;;;7.90;;
70908;SDS011;58554;52.006;5.926;2023-05-07T14:14:54;10.47;;;8.60;;
70908;SDS011;58554;52.006;5.926;2023-05-07T14:17:23;11.03;;;8.70;;
70908;SDS011;58554;52.006;5.926;2023-05-07T14:19:50;11.60;;;8.68;;
70908;SDS011;58554;52.006;5.926;2023-05-07T14:22:17;10.47;;;8.77;;
70908;SDS011;58554;52.006;5.926;2023-05-07T14:24:44;10.90;;;8.13;;
70908;SDS011;58554;52.006;5.926;2023-05-07T14:27:10;11.98;;;7.93;;
70908;SDS011;58554;52.006;5.926;2023-05-07T14:29:37;11.32;;;8.38;;
70908;SDS011;58554;52.006;5.926;2023-05-07T14:32:03;11.10;;;9.07;;
70908;SDS011;58554;52.006;5.926;2023-05-07T14:34:33;12.27;;;9.73;;